Aérodrome :
LOGIN :

S'inscrire | Disclaimer

   EN    FR    IT 

 










Légende :    VFR   VFR Marginal   IFR   IFR Intensif   IFR Très Intensif
Visi : 
Plafond : 
>= 8 km
>= 3000ft
5 à 8 km
1000 à 3000 ft
1500m à 5 km
500 à 1000 ft
800 à 1500m
200 à 500 ft
< 800m
< 200 ft
Symboles :   Orages  Brouillard  Fortes neiges  Fortes précipitations  Vent > 20 kt
SIGMETs :   Divers  Orages  Givrage  Turbulence  Onde Orograph.  Cendres Volcan.






- Altitude de l'aérodrome : 13 ft
- Code IATA : OST


EBOS - Oostend bruges Int.

DERNIER METAR :
  • 040450Z 22002KT 6000 NSC 10/10 Q1021 NOSIG

METARs EXPIRÉS :
  • 040350Z 18003KT CAVOK 08/08 Q1021 NOSIG
  • 040320Z VRB02KT CAVOK 09/08 Q1020 NOSIG
  • 040250Z 21003KT 180V250 9999 FEW009 09/09 Q1020 NOSIG
  • 040220Z 20003KT 160V220 9999 FEW009 10/09 Q1020 NOSIG
  • 040150Z 21004KT CAVOK 10/09 Q1020 NOSIG

TAF TAF EBOS
Valide du 04 à 00h jusqu'au 05 à 06h UTC


032308Z 0400/0506 23004KT 9999 FEW045
BECMG 0409/0411 31010KT
BECMG 0419/0421 22006KT
BECMG 0504/0506 33010KT



MET'MAP, la Météo Aéronautique d'un coup d'oeil ! - Copyright ORBIFLY Décembre 2007 - Disclaimer

ORBIFLY MET'MAP TEAM :

Programmation & Développement : Alexandra Zaïnal
Sur une idée originale de : Baudouin d'Aumeries
Soutien technique & logistique : Manuel Goepfert
Assistance : Marc-Olivier Méhu




SOURCES & CREDITS :

   NOAA